createdAt,value
2023-04-28T00:00:55.674Z,5.30
2023-04-28T00:02:28.528Z,5.90
2023-04-28T00:04:02.065Z,5.93
2023-04-28T00:05:36.464Z,6.27
2023-04-28T00:07:08.268Z,5.87
2023-04-28T00:08:40.978Z,5.53
2023-04-28T00:10:13.791Z,5.70
2023-04-28T00:11:46.968Z,5.67
2023-04-28T00:13:19.869Z,5.40
2023-04-28T00:14:52.784Z,5.50
2023-04-28T00:16:25.622Z,5.47
2023-04-28T00:17:57.519Z,5.53
2023-04-28T00:19:30.299Z,5.80
2023-04-28T00:21:04.533Z,5.87
2023-04-28T00:22:37.229Z,5.63
2023-04-28T00:24:10.000Z,5.60
2023-04-28T00:25:42.675Z,5.83
2023-04-28T00:27:15.393Z,5.67
2023-04-28T00:28:47.111Z,5.93
2023-04-28T00:30:19.930Z,6.30
2023-04-28T00:31:52.670Z,5.83
2023-04-28T00:33:25.502Z,6.10
2023-04-28T00:34:57.753Z,6.50
2023-04-28T00:36:32.335Z,6.50
2023-04-28T00:38:04.085Z,6.00
2023-04-28T00:39:36.760Z,5.60
2023-04-28T00:41:10.941Z,6.03
2023-04-28T00:42:43.643Z,5.70
2023-04-28T00:44:16.664Z,6.37
2023-04-28T00:45:50.914Z,6.17
2023-04-28T00:47:23.723Z,6.37
2023-04-28T00:48:56.459Z,6.27
2023-04-28T00:50:29.515Z,6.00
2023-04-28T00:52:06.852Z,5.80
2023-04-28T00:53:39.570Z,6.40
2023-04-28T00:55:13.628Z,6.40
2023-04-28T00:56:45.750Z,6.40
2023-04-28T00:58:18.451Z,6.47
2023-04-28T00:59:50.280Z,6.20
2023-04-28T01:01:23.006Z,6.40
2023-04-28T01:02:57.442Z,6.23
2023-04-28T01:04:30.430Z,6.27
2023-04-28T01:06:03.548Z,6.17
2023-04-28T01:07:37.613Z,5.93
2023-04-28T01:09:10.395Z,6.00
2023-04-28T01:10:45.198Z,6.23
2023-04-28T01:12:16.947Z,6.10
2023-04-28T01:13:49.652Z,6.37
2023-04-28T01:15:22.493Z,6.00
2023-04-28T01:16:55.836Z,6.03
2023-04-28T01:18:29.276Z,6.03
2023-04-28T01:20:01.983Z,6.03
2023-04-28T01:21:35.445Z,5.83
2023-04-28T01:23:13.232Z,6.10
2023-04-28T01:24:47.238Z,5.93
2023-04-28T01:26:18.958Z,6.10
2023-04-28T01:27:52.712Z,5.57
2023-04-28T01:29:25.539Z,5.60
2023-04-28T01:30:57.255Z,6.33
2023-04-28T01:32:30.042Z,5.70
2023-04-28T01:34:02.883Z,6.20
2023-04-28T01:35:35.644Z,5.87
2023-04-28T01:37:08.349Z,5.53
2023-04-28T01:38:41.063Z,5.60
2023-04-28T01:40:15.574Z,5.47
2023-04-28T01:41:47.330Z,6.13
2023-04-28T01:43:20.424Z,5.80
2023-04-28T01:44:53.629Z,5.53
2023-04-28T01:46:26.335Z,6.03
2023-04-28T01:47:59.084Z,5.70
2023-04-28T01:49:32.155Z,6.23
2023-04-28T01:51:04.148Z,6.40
2023-04-28T01:52:36.829Z,6.00
2023-04-28T01:54:08.591Z,6.00
2023-04-28T01:55:42.589Z,5.90
2023-04-28T01:57:17.316Z,5.83
2023-04-28T01:58:50.368Z,6.17
2023-04-28T02:00:22.116Z,5.47
2023-04-28T02:01:54.933Z,5.47
2023-04-28T02:03:28.019Z,5.60
2023-04-28T02:05:00.910Z,5.33
2023-04-28T02:06:33.642Z,5.73
2023-04-28T02:08:06.632Z,5.73
2023-04-28T02:09:39.312Z,5.60
2023-04-28T02:11:13.457Z,5.50
2023-04-28T02:12:45.201Z,6.27
2023-04-28T02:14:18.178Z,6.10
2023-04-28T02:15:50.127Z,5.57
2023-04-28T02:17:23.188Z,4.87
2023-04-28T02:18:55.917Z,5.30
2023-04-28T02:20:27.666Z,5.53
2023-04-28T02:22:00.371Z,5.73
2023-04-28T02:23:33.078Z,6.30
2023-04-28T02:25:06.785Z,5.67
2023-04-28T02:26:40.834Z,5.37
2023-04-28T02:28:14.028Z,5.60
2023-04-28T02:29:46.703Z,5.80
2023-04-28T02:31:18.624Z,5.10
2023-04-28T02:32:51.738Z,5.57
2023-04-28T02:34:23.601Z,5.33
2023-04-28T02:36:00.226Z,5.63
2023-04-28T02:37:32.876Z,5.63
2023-04-28T02:39:05.575Z,5.57
2023-04-28T02:40:38.251Z,5.47
2023-04-28T02:42:12.284Z,5.80
2023-04-28T02:43:44.957Z,5.67
2023-04-28T02:45:16.870Z,6.20
2023-04-28T02:46:50.112Z,6.40
2023-04-28T02:48:22.871Z,6.20
2023-04-28T02:49:55.613Z,6.17
2023-04-28T02:51:27.353Z,5.87
2023-04-28T02:53:00.018Z,6.20
2023-04-28T02:54:34.029Z,6.40
2023-04-28T02:56:06.957Z,5.70
2023-04-28T02:57:40.984Z,6.10
2023-04-28T02:59:12.721Z,5.50
2023-04-28T03:00:45.545Z,5.37
2023-04-28T03:02:20.509Z,5.50
2023-04-28T03:03:53.320Z,5.80
2023-04-28T03:05:26.389Z,5.73
2023-04-28T03:06:59.114Z,6.20
2023-04-28T03:08:31.821Z,5.70
2023-04-28T03:10:03.791Z,5.90
2023-04-28T03:11:36.476Z,5.50
2023-04-28T03:13:11.165Z,6.00
2023-04-28T03:14:43.842Z,5.60
2023-04-28T03:16:15.627Z,6.23
2023-04-28T03:17:48.459Z,5.70
2023-04-28T03:19:21.279Z,5.67
2023-04-28T03:20:53.942Z,5.50
2023-04-28T03:22:26.631Z,5.80
2023-04-28T03:23:59.320Z,5.80
2023-04-28T03:25:31.221Z,5.30
2023-04-28T03:27:05.741Z,5.80
2023-04-28T03:28:39.826Z,5.73
2023-04-28T03:30:13.933Z,6.07
2023-04-28T03:31:46.689Z,6.50
2023-04-28T03:33:19.399Z,5.77
2023-04-28T03:34:52.126Z,6.43
2023-04-28T03:36:24.783Z,6.60
2023-04-28T03:37:57.453Z,6.70
2023-04-28T03:39:29.211Z,5.67
2023-04-28T03:41:01.869Z,6.00
2023-04-28T03:42:33.602Z,6.13
2023-04-28T03:44:07.783Z,6.73
2023-04-28T03:45:40.559Z,6.50
2023-04-28T03:47:13.569Z,5.60
2023-04-28T03:48:46.986Z,5.90
2023-04-28T03:50:19.852Z,5.80
2023-04-28T03:51:52.633Z,6.33
2023-04-28T03:53:25.314Z,6.40
2023-04-28T03:54:57.991Z,6.43
2023-04-28T03:56:30.710Z,6.37
2023-04-28T03:58:03.501Z,6.50
2023-04-28T03:59:37.527Z,6.77
2023-04-28T04:01:09.294Z,6.30
2023-04-28T04:02:42.206Z,6.57
2023-04-28T04:04:15.277Z,6.63
2023-04-28T04:05:48.611Z,6.77
2023-04-28T04:07:22.761Z,6.40
2023-04-28T04:08:54.721Z,6.30
2023-04-28T04:10:27.749Z,7.10
2023-04-28T04:12:01.082Z,6.43
2023-04-28T04:13:33.118Z,6.30
2023-04-28T04:15:08.762Z,7.13
2023-04-28T04:16:41.451Z,6.67
2023-04-28T04:18:14.753Z,6.23
2023-04-28T04:19:47.438Z,6.90
2023-04-28T04:21:20.289Z,6.33
2023-04-28T04:22:52.967Z,6.80
2023-04-28T04:24:25.680Z,7.40
2023-04-28T04:25:57.465Z,7.03
2023-04-28T04:27:30.281Z,6.97
2023-04-28T04:29:02.999Z,7.07
2023-04-28T04:30:36.127Z,6.70
2023-04-28T04:32:08.893Z,7.30
2023-04-28T04:33:42.055Z,7.23
2023-04-28T04:35:14.858Z,7.63
2023-04-28T04:36:46.578Z,7.33
2023-04-28T04:38:19.268Z,7.17
2023-04-28T04:39:51.077Z,7.00
2023-04-28T04:41:24.080Z,7.07
2023-04-28T04:42:56.841Z,7.10
2023-04-28T04:44:29.562Z,7.67
2023-04-28T04:46:04.481Z,8.13
2023-04-28T04:47:37.431Z,7.60
2023-04-28T04:49:10.163Z,7.27
2023-04-28T04:50:43.663Z,7.17
2023-04-28T04:52:15.384Z,7.00
2023-04-28T04:53:48.055Z,7.30
2023-04-28T04:55:19.872Z,7.27
2023-04-28T04:56:52.634Z,7.50
2023-04-28T04:58:25.496Z,7.57
2023-04-28T04:59:58.182Z,7.27
2023-04-28T05:01:32.199Z,7.80
2023-04-28T05:03:06.269Z,8.70
2023-04-28T05:04:39.462Z,7.57
2023-04-28T05:06:12.253Z,7.97
2023-04-28T05:07:45.071Z,8.13
2023-04-28T05:09:17.839Z,8.40
2023-04-28T05:10:50.633Z,8.57
2023-04-28T05:12:23.365Z,8.70
2023-04-28T05:13:56.071Z,8.07
2023-04-28T05:15:28.842Z,8.33
2023-04-28T05:17:02.896Z,7.73
2023-04-28T05:18:35.842Z,8.53
2023-04-28T05:20:11.079Z,8.43
2023-04-28T05:21:47.420Z,8.20
2023-04-28T05:23:20.204Z,8.40
2023-04-28T05:24:53.213Z,8.23
2023-04-28T05:26:26.068Z,9.10
2023-04-28T05:27:57.789Z,8.67
2023-04-28T05:29:30.478Z,9.30
2023-04-28T05:31:02.239Z,8.40
2023-04-28T05:32:37.196Z,8.63
2023-04-28T05:34:09.893Z,8.70
2023-04-28T05:35:42.559Z,9.53
2023-04-28T05:37:14.291Z,8.93
2023-04-28T05:38:47.090Z,9.00
2023-04-28T05:40:19.972Z,9.17
2023-04-28T05:41:52.769Z,8.60
2023-04-28T05:43:25.474Z,8.20
2023-04-28T05:44:58.158Z,9.10
2023-04-28T05:46:31.407Z,8.80
2023-04-28T05:48:06.262Z,7.93
2023-04-28T05:49:39.285Z,8.47
2023-04-28T05:51:11.996Z,8.60
2023-04-28T05:52:44.720Z,9.20
2023-04-28T05:54:17.785Z,8.20
2023-04-28T05:55:50.906Z,9.53
2023-04-28T05:57:23.710Z,9.03
2023-04-28T05:58:56.634Z,9.27
2023-04-28T06:00:29.352Z,9.10
2023-04-28T06:02:02.093Z,8.80
2023-04-28T06:03:36.337Z,8.87
2023-04-28T06:05:11.457Z,8.30
2023-04-28T06:06:43.445Z,8.73
2023-04-28T06:08:16.209Z,8.53
2023-04-28T06:09:49.510Z,9.30
2023-04-28T06:11:22.611Z,9.00
2023-04-28T06:12:55.522Z,8.37
2023-04-28T06:14:28.270Z,8.20
2023-04-28T06:16:01.017Z,7.77
2023-04-28T06:17:34.165Z,8.97
2023-04-28T06:19:08.335Z,9.10
2023-04-28T06:20:41.015Z,8.47
2023-04-28T06:22:14.290Z,9.53
2023-04-28T06:23:47.001Z,8.97
2023-04-28T06:25:19.656Z,8.53
2023-04-28T06:26:52.491Z,8.10
2023-04-28T06:28:25.275Z,8.03
2023-04-28T06:29:57.954Z,9.07
2023-04-28T06:31:30.921Z,9.33
2023-04-28T06:33:03.711Z,8.93
2023-04-28T06:34:38.334Z,9.87
2023-04-28T06:36:13.763Z,9.57
2023-04-28T06:37:46.505Z,8.73
2023-04-28T06:39:19.271Z,9.63
2023-04-28T06:40:51.968Z,8.83
2023-04-28T06:42:26.027Z,8.00
2023-04-28T06:43:59.534Z,9.37
2023-04-28T06:45:32.234Z,9.40
2023-04-28T06:47:05.077Z,8.57
2023-04-28T06:48:37.980Z,9.67
2023-04-28T06:50:12.467Z,9.17
2023-04-28T06:51:46.084Z,9.07
2023-04-28T06:53:18.788Z,9.13
2023-04-28T06:54:51.713Z,9.13
2023-04-28T06:56:24.430Z,8.33
2023-04-28T06:57:57.270Z,9.80
2023-04-28T06:59:29.980Z,10.83
2023-04-28T07:01:03.944Z,10.93
2023-04-28T07:02:37.300Z,10.47
2023-04-28T07:04:10.258Z,10.23
2023-04-28T07:05:44.524Z,10.27
2023-04-28T07:07:17.200Z,9.40
2023-04-28T07:08:49.918Z,11.00
2023-04-28T07:10:22.640Z,11.13
2023-04-28T07:11:55.359Z,10.87
2023-04-28T07:13:28.463Z,11.27
2023-04-28T07:15:01.152Z,10.43
2023-04-28T07:16:33.966Z,10.60
2023-04-28T07:18:07.349Z,10.40
2023-04-28T07:19:40.233Z,10.97
2023-04-28T07:21:14.381Z,12.03
2023-04-28T07:22:47.059Z,12.30
2023-04-28T07:24:19.754Z,11.73
2023-04-28T07:25:52.656Z,12.37
2023-04-28T07:27:25.359Z,12.10
2023-04-28T07:28:58.043Z,11.57
2023-04-28T07:30:30.732Z,12.13
2023-04-28T07:32:06.855Z,11.37
2023-04-28T07:33:40.367Z,11.67
2023-04-28T07:35:13.066Z,10.53
2023-04-28T07:36:47.154Z,12.03
2023-04-28T07:38:20.402Z,11.90
2023-04-28T07:39:53.368Z,11.67
2023-04-28T07:41:28.882Z,11.80
2023-04-28T07:43:01.637Z,12.40
2023-04-28T07:44:34.340Z,11.50
2023-04-28T07:46:08.221Z,13.30
2023-04-28T07:47:41.245Z,12.10
2023-04-28T07:49:13.954Z,11.83
2023-04-28T07:50:46.682Z,11.73
2023-04-28T07:52:20.711Z,12.67
2023-04-28T07:53:53.514Z,13.17
2023-04-28T07:55:26.373Z,13.37
2023-04-28T07:56:59.064Z,13.70
2023-04-28T07:58:32.471Z,13.40
2023-04-28T08:00:06.481Z,12.30
2023-04-28T08:01:39.162Z,13.37
2023-04-28T08:03:12.057Z,14.07
2023-04-28T08:04:45.150Z,13.70
2023-04-28T08:06:18.015Z,13.30
2023-04-28T08:07:52.286Z,11.90
2023-04-28T08:09:25.410Z,12.63
2023-04-28T08:10:59.081Z,13.90
2023-04-28T08:12:32.599Z,13.20
2023-04-28T08:14:05.493Z,13.90
2023-04-28T08:15:38.267Z,12.13
2023-04-28T08:17:11.114Z,11.87
2023-04-28T08:18:44.010Z,14.33
2023-04-28T08:20:20.526Z,13.07
2023-04-28T08:21:54.384Z,13.23
2023-04-28T08:23:30.622Z,13.93
2023-04-28T08:25:03.411Z,14.67
2023-04-28T08:26:36.095Z,14.87
2023-04-28T08:28:08.772Z,14.47
2023-04-28T08:29:41.739Z,14.83
2023-04-28T08:31:14.502Z,15.57
2023-04-28T08:32:47.336Z,12.70
2023-04-28T08:34:20.861Z,13.43
2023-04-28T08:35:54.941Z,13.50
2023-04-28T08:37:27.997Z,13.20
2023-04-28T08:39:03.346Z,12.03
2023-04-28T08:40:36.039Z,12.43
2023-04-28T08:42:09.524Z,14.60
2023-04-28T08:43:43.205Z,13.07
2023-04-28T08:45:16.606Z,13.70
2023-04-28T08:46:51.139Z,13.17
2023-04-28T08:48:23.899Z,13.50
2023-04-28T08:50:03.026Z,12.90
2023-04-28T08:51:40.094Z,13.43
2023-04-28T08:53:18.015Z,14.73
2023-04-28T08:54:52.479Z,14.17
2023-04-28T08:56:27.913Z,13.73
2023-04-28T08:58:01.939Z,13.57
2023-04-28T08:59:35.394Z,13.07
2023-04-28T09:01:08.627Z,13.33
2023-04-28T09:02:42.755Z,13.90
2023-04-28T09:04:18.565Z,12.90
2023-04-28T09:05:51.906Z,12.77
2023-04-28T09:07:24.701Z,12.47
2023-04-28T09:08:57.447Z,12.80
2023-04-28T09:10:31.538Z,14.57
2023-04-28T09:12:05.376Z,14.77
2023-04-28T09:13:37.432Z,14.87
2023-04-28T09:15:10.916Z,12.87
2023-04-28T09:16:43.669Z,13.73
2023-04-28T09:18:16.509Z,12.97
2023-04-28T09:19:49.190Z,13.83
2023-04-28T09:21:21.918Z,15.37
2023-04-28T09:22:57.280Z,14.60
2023-04-28T09:24:30.329Z,13.27
2023-04-28T09:26:06.340Z,14.27
2023-04-28T09:27:39.057Z,13.67
2023-04-28T09:29:15.090Z,14.90
2023-04-28T09:30:47.932Z,13.40
2023-04-28T09:32:22.147Z,14.10
2023-04-28T09:33:58.998Z,13.80
2023-04-28T09:35:40.798Z,12.77
2023-04-28T09:37:17.918Z,15.93
2023-04-28T09:38:50.804Z,16.03
2023-04-28T09:40:23.711Z,15.87
2023-04-28T09:41:58.953Z,15.23
2023-04-28T09:43:32.858Z,13.97
2023-04-28T09:45:07.302Z,13.37
2023-04-28T09:46:40.131Z,15.33
2023-04-28T09:48:13.038Z,14.77
2023-04-28T09:49:55.951Z,14.03
2023-04-28T09:51:28.736Z,15.60
2023-04-28T09:53:03.997Z,14.53
2023-04-28T09:54:36.880Z,13.60
2023-04-28T09:56:10.871Z,12.90
2023-04-28T09:57:47.928Z,12.20
2023-04-28T09:59:22.868Z,13.20
2023-04-28T10:00:57.879Z,13.70
2023-04-28T10:04:07.493Z,12.70
2023-04-28T10:05:40.794Z,12.03
2023-04-28T10:07:16.370Z,12.80
2023-04-28T10:08:51.950Z,12.67
2023-04-28T10:10:27.185Z,12.37
2023-04-28T10:12:00.825Z,11.57
2023-04-28T10:13:37.189Z,11.40
2023-04-28T10:15:11.495Z,11.63
2023-04-28T10:16:45.093Z,10.63
2023-04-28T10:18:18.418Z,10.70
2023-04-28T10:19:52.435Z,11.63
2023-04-28T10:21:27.858Z,11.90
2023-04-28T10:23:12.369Z,11.27
2023-04-28T10:25:04.872Z,10.43
2023-04-28T10:27:08.351Z,11.07
2023-04-28T10:28:48.394Z,8.97
2023-04-28T10:30:28.212Z,9.97
2023-04-28T10:32:18.517Z,9.83
2023-04-28T10:33:51.391Z,9.73
2023-04-28T10:35:44.634Z,9.57
2023-04-28T10:37:18.869Z,9.93
2023-04-28T10:39:11.867Z,10.13
2023-04-28T10:40:45.650Z,10.80
2023-04-28T10:42:56.159Z,10.60
2023-04-28T10:44:45.689Z,10.83
2023-04-28T10:46:18.433Z,10.87
2023-04-28T10:48:04.180Z,10.20
2023-04-28T10:50:11.620Z,10.40
2023-04-28T10:51:44.319Z,11.20
2023-04-28T10:53:16.164Z,9.97
2023-04-28T10:55:22.788Z,11.43
2023-04-28T10:57:18.951Z,11.10
2023-04-28T10:58:52.216Z,11.40
2023-04-28T11:00:31.393Z,11.13
2023-04-28T11:02:49.445Z,11.47
2023-04-28T11:04:24.320Z,11.10
2023-04-28T11:06:21.422Z,11.33
2023-04-28T11:08:33.695Z,10.73
2023-04-28T11:10:08.036Z,10.77
2023-04-28T11:11:41.452Z,9.80
2023-04-28T11:13:25.740Z,11.10
2023-04-28T11:14:58.521Z,10.93
2023-04-28T11:16:32.963Z,11.53
2023-04-28T11:18:15.233Z,10.80
2023-04-28T11:19:48.577Z,11.43
2023-04-28T11:21:22.093Z,11.27
2023-04-28T11:22:54.817Z,10.37
2023-04-28T11:24:29.196Z,11.23
2023-04-28T11:26:00.942Z,11.00
2023-04-28T11:27:34.890Z,13.73
2023-04-28T11:29:07.839Z,12.27
2023-04-28T11:30:40.540Z,14.07
2023-04-28T11:32:14.676Z,14.43
2023-04-28T11:33:53.956Z,14.23
2023-04-28T11:35:27.012Z,15.83
2023-04-28T11:36:59.800Z,14.30
2023-04-28T11:38:44.574Z,15.80
2023-04-28T11:40:18.411Z,14.53
2023-04-28T11:41:51.211Z,13.77
2023-04-28T11:43:43.718Z,14.80
2023-04-28T11:45:19.801Z,13.13
2023-04-28T11:46:55.877Z,13.03
2023-04-28T11:48:29.950Z,12.43
2023-04-28T11:50:03.255Z,14.77
2023-04-28T11:51:38.683Z,13.13
2023-04-28T11:53:11.430Z,13.13
2023-04-28T11:54:44.260Z,13.57
2023-04-28T11:56:16.034Z,13.73
2023-04-28T11:57:48.740Z,14.23
2023-04-28T11:59:25.966Z,14.07
2023-04-28T12:01:09.280Z,13.50
2023-04-28T12:02:42.155Z,13.17
2023-04-28T12:04:27.240Z,17.10
2023-04-28T12:06:00.133Z,14.73
2023-04-28T12:07:42.722Z,14.93
2023-04-28T12:09:21.443Z,14.13
2023-04-28T12:11:09.352Z,12.83
2023-04-28T12:12:50.971Z,12.40
2023-04-28T12:14:25.359Z,12.33
2023-04-28T12:16:01.939Z,10.90
2023-04-28T12:17:36.273Z,11.50
2023-04-28T12:19:10.771Z,14.27
2023-04-28T12:20:44.940Z,12.73
2023-04-28T12:22:17.787Z,11.93
2023-04-28T12:23:51.132Z,11.60
2023-04-28T12:25:23.841Z,12.27
2023-04-28T12:27:14.577Z,10.70
2023-04-28T12:28:47.334Z,12.07
2023-04-28T12:30:26.380Z,12.30
2023-04-28T12:32:00.096Z,12.03
2023-04-28T12:33:34.020Z,11.70
2023-04-28T12:35:07.781Z,12.93
2023-04-28T12:36:41.856Z,10.50
2023-04-28T12:38:15.816Z,10.80
2023-04-28T12:39:48.492Z,9.37
2023-04-28T12:41:20.386Z,10.67
2023-04-28T12:42:53.111Z,10.47
2023-04-28T12:44:24.942Z,12.00
2023-04-28T12:45:57.729Z,10.50
2023-04-28T12:47:30.590Z,11.67
2023-04-28T12:49:02.792Z,11.20
2023-04-28T12:50:35.606Z,12.63
2023-04-28T12:52:09.679Z,13.00
2023-04-28T12:53:42.414Z,11.60
2023-04-28T12:55:15.129Z,12.10
2023-04-28T12:56:47.859Z,12.37
2023-04-28T12:58:20.528Z,14.13
2023-04-28T12:59:53.423Z,14.13
2023-04-28T13:01:27.403Z,14.40
2023-04-28T13:03:00.675Z,14.27
2023-04-28T13:04:33.676Z,13.17
2023-04-28T13:06:07.627Z,13.70
2023-04-28T13:07:41.715Z,13.23
2023-04-28T13:09:15.788Z,13.63
2023-04-28T13:10:48.456Z,13.20
2023-04-28T13:12:21.131Z,13.33
2023-04-28T13:13:53.254Z,13.03
2023-04-28T13:15:27.133Z,12.03
2023-04-28T13:16:59.836Z,12.70
2023-04-28T13:18:32.711Z,11.47
2023-04-28T13:20:06.651Z,11.27
2023-04-28T13:21:39.830Z,11.17
2023-04-28T13:23:13.859Z,9.97
2023-04-28T13:24:46.859Z,11.07
2023-04-28T13:26:20.390Z,10.63
2023-04-28T13:27:53.060Z,10.07
2023-04-28T13:29:25.838Z,8.53
2023-04-28T13:30:58.521Z,8.80
2023-04-28T13:32:31.709Z,9.50
2023-04-28T13:34:06.105Z,9.03
2023-04-28T13:35:37.888Z,9.33
2023-04-28T13:37:10.670Z,8.80
2023-04-28T13:38:48.620Z,8.57
2023-04-28T13:40:21.295Z,9.03
2023-04-28T13:41:54.012Z,8.63
2023-04-28T13:43:26.672Z,8.67
2023-04-28T13:44:59.343Z,8.27
2023-04-28T13:46:32.281Z,8.10
2023-04-28T13:48:05.180Z,7.90
2023-04-28T13:49:39.731Z,7.47
2023-04-28T13:51:12.682Z,7.63
2023-04-28T13:52:45.366Z,7.90
2023-04-28T13:54:19.387Z,7.50
2023-04-28T13:55:53.909Z,7.87
2023-04-28T13:57:26.913Z,7.90
2023-04-28T13:58:59.803Z,7.67
2023-04-28T14:00:33.096Z,7.30
2023-04-28T14:02:05.943Z,6.03
2023-04-28T14:03:40.475Z,4.17
2023-04-28T14:05:13.292Z,4.00
2023-04-28T14:06:46.014Z,4.80
2023-04-28T14:08:20.604Z,5.10
2023-04-28T14:09:55.006Z,3.60
2023-04-28T14:11:27.734Z,3.90
2023-04-28T14:13:00.551Z,3.93
2023-04-28T14:14:33.275Z,4.77
2023-04-28T14:16:06.386Z,4.50
2023-04-28T14:17:39.198Z,4.70
2023-04-28T14:19:12.715Z,5.20
2023-04-28T14:20:45.453Z,5.90
2023-04-28T14:22:18.183Z,5.30
2023-04-28T14:23:51.237Z,7.00
2023-04-28T14:25:25.285Z,4.90
2023-04-28T14:26:58.022Z,4.13
2023-04-28T14:28:30.790Z,4.30
2023-04-28T14:30:03.593Z,4.20
2023-04-28T14:31:36.387Z,4.40
2023-04-28T14:33:09.179Z,4.40
2023-04-28T14:34:41.963Z,3.70
2023-04-28T14:36:14.670Z,3.50
2023-04-28T14:37:47.938Z,3.53
2023-04-28T14:39:20.665Z,3.20
2023-04-28T14:40:54.681Z,3.13
2023-04-28T14:42:32.005Z,3.27
2023-04-28T14:44:04.919Z,2.90
2023-04-28T14:45:38.044Z,2.77
2023-04-28T14:47:10.774Z,2.80
2023-04-28T14:48:43.560Z,2.53
2023-04-28T14:50:16.701Z,2.57
2023-04-28T14:51:49.211Z,2.50
2023-04-28T14:53:21.933Z,2.63
2023-04-28T14:54:55.848Z,2.40
2023-04-28T14:56:30.767Z,2.13
2023-04-28T14:58:04.857Z,2.20
2023-04-28T14:59:37.534Z,2.23
2023-04-28T15:01:10.236Z,2.67
2023-04-28T15:02:43.180Z,2.43
2023-04-28T15:04:16.249Z,2.70
2023-04-28T15:05:49.198Z,2.40
2023-04-28T15:07:22.325Z,2.50
2023-04-28T15:08:55.029Z,2.30
2023-04-28T15:10:38.139Z,2.40
2023-04-28T15:12:12.141Z,2.30
2023-04-28T15:13:44.853Z,2.77
2023-04-28T15:15:17.574Z,2.10
2023-04-28T15:16:49.543Z,2.10
2023-04-28T15:18:22.221Z,2.30
2023-04-28T15:19:54.919Z,1.80
2023-04-28T15:21:28.474Z,1.50
2023-04-28T15:23:01.386Z,1.77
2023-04-28T15:24:34.098Z,1.70
2023-04-28T15:26:07.988Z,1.90
2023-04-28T15:27:42.001Z,1.87
2023-04-28T15:29:14.695Z,1.90
2023-04-28T15:30:47.430Z,1.60
2023-04-28T15:32:20.255Z,1.10
2023-04-28T15:33:52.984Z,1.27
2023-04-28T15:35:25.710Z,1.10
2023-04-28T15:36:58.430Z,1.00
2023-04-28T15:38:31.812Z,1.03
2023-04-28T15:40:05.593Z,1.00
2023-04-28T15:41:38.322Z,0.80
2023-04-28T15:43:13.248Z,0.90
2023-04-28T15:44:46.763Z,0.97
2023-04-28T15:46:19.593Z,0.90
2023-04-28T15:47:52.355Z,0.70
2023-04-28T15:49:25.050Z,0.90
2023-04-28T15:50:58.440Z,0.83
2023-04-28T15:52:31.842Z,0.80
2023-04-28T15:54:04.647Z,0.50
2023-04-28T15:55:37.740Z,0.67
2023-04-28T15:57:10.493Z,0.60
2023-04-28T15:58:44.632Z,0.60
2023-04-28T16:00:17.591Z,0.67
2023-04-28T16:01:50.434Z,0.70
2023-04-28T16:03:23.239Z,0.80
2023-04-28T16:04:55.993Z,0.80
2023-04-28T16:06:30.133Z,0.60
2023-04-28T16:08:02.865Z,0.70
2023-04-28T16:09:35.556Z,0.67
2023-04-28T16:11:09.181Z,0.50
2023-04-28T16:12:42.376Z,0.60
2023-04-28T16:14:16.558Z,0.53
2023-04-28T16:15:51.157Z,0.60
2023-04-28T16:17:23.947Z,0.40
2023-04-28T16:18:57.332Z,0.70
2023-04-28T16:20:30.312Z,0.57
2023-04-28T16:22:02.980Z,0.70
2023-04-28T16:23:35.914Z,0.70
2023-04-28T16:25:10.358Z,0.70
2023-04-28T16:26:43.319Z,0.60
2023-04-28T16:28:16.112Z,0.70
2023-04-28T16:29:50.195Z,0.60
2023-04-28T16:31:22.905Z,0.80
2023-04-28T16:32:58.220Z,0.80
2023-04-28T16:34:31.071Z,0.63
2023-04-28T16:36:03.860Z,0.60
2023-04-28T16:37:38.975Z,0.60
2023-04-28T16:39:12.066Z,0.60
2023-04-28T16:40:44.760Z,0.80
2023-04-28T16:42:17.472Z,0.90
2023-04-28T16:43:50.418Z,1.37
2023-04-28T16:45:24.524Z,0.77
2023-04-28T16:46:58.221Z,0.90
2023-04-28T16:48:31.282Z,1.00
2023-04-28T16:50:03.975Z,0.80
2023-04-28T16:51:36.979Z,1.10
2023-04-28T16:53:09.691Z,1.40
2023-04-28T16:54:42.366Z,1.30
2023-04-28T16:56:15.089Z,0.90
2023-04-28T16:57:47.820Z,1.10
2023-04-28T16:59:20.506Z,0.90
2023-04-28T17:00:54.687Z,1.00
2023-04-28T17:02:28.624Z,0.90
2023-04-28T17:04:02.873Z,1.13
2023-04-28T17:05:35.753Z,1.10
2023-04-28T17:07:08.521Z,0.77
2023-04-28T17:08:42.088Z,0.80
2023-04-28T17:10:14.812Z,0.93
2023-04-28T17:11:48.048Z,1.20
2023-04-28T17:13:20.981Z,1.40
2023-04-28T17:14:54.446Z,1.90
2023-04-28T17:16:32.049Z,2.20
2023-04-28T17:18:04.890Z,1.70
2023-04-28T17:19:37.640Z,1.67
2023-04-28T17:21:11.549Z,1.40
2023-04-28T17:22:44.530Z,1.40
2023-04-28T17:24:17.487Z,1.47
2023-04-28T17:25:50.342Z,1.40
2023-04-28T17:27:23.421Z,1.30
2023-04-28T17:28:56.458Z,1.63
2023-04-28T17:30:29.550Z,1.50
2023-04-28T17:32:03.969Z,1.40
2023-04-28T17:33:37.378Z,1.47
2023-04-28T17:35:10.615Z,1.40
2023-04-28T17:36:43.428Z,2.00
2023-04-28T17:38:17.043Z,1.70
2023-04-28T17:39:50.965Z,1.20
2023-04-28T17:41:24.032Z,1.30
2023-04-28T17:42:57.211Z,1.10
2023-04-28T17:44:29.873Z,0.93
2023-04-28T17:46:02.604Z,0.80
2023-04-28T17:47:37.551Z,0.70
2023-04-28T17:49:10.554Z,0.80
2023-04-28T17:50:43.610Z,1.00
2023-04-28T17:52:16.679Z,1.03
2023-04-28T17:53:49.561Z,0.93
2023-04-28T17:55:23.340Z,1.10
2023-04-28T17:56:56.075Z,0.90
2023-04-28T17:58:29.018Z,0.83
2023-04-28T18:00:01.734Z,0.90
2023-04-28T18:01:35.037Z,1.10
2023-04-28T18:03:09.181Z,1.20
2023-04-28T18:04:41.972Z,1.20
2023-04-28T18:06:16.079Z,1.13
2023-04-28T18:07:48.794Z,1.00
2023-04-28T18:09:21.471Z,1.10
2023-04-28T18:10:54.393Z,0.80
2023-04-28T18:12:27.089Z,1.20
2023-04-28T18:13:59.797Z,0.80
2023-04-28T18:15:32.495Z,0.80
2023-04-28T18:17:05.181Z,1.00
2023-04-28T18:18:39.285Z,0.97
2023-04-28T18:20:13.244Z,1.10
2023-04-28T18:21:46.077Z,1.00
2023-04-28T18:23:20.176Z,0.90
2023-04-28T18:24:53.674Z,0.80
2023-04-28T18:26:26.352Z,0.93
2023-04-28T18:27:59.147Z,1.00
2023-04-28T18:29:31.838Z,0.87
2023-04-28T18:31:06.436Z,1.10
2023-04-28T18:32:39.177Z,1.00
2023-04-28T18:34:13.283Z,1.43
2023-04-28T18:35:46.839Z,1.80
2023-04-28T18:37:19.507Z,1.50
2023-04-28T18:38:52.202Z,1.40
2023-04-28T18:40:25.038Z,1.20
2023-04-28T18:41:58.543Z,1.00
2023-04-28T18:43:31.222Z,1.10
2023-04-28T18:45:05.649Z,1.10
2023-04-28T18:46:38.502Z,1.30
2023-04-28T18:48:11.509Z,1.00
2023-04-28T18:49:45.740Z,0.90
2023-04-28T18:51:18.439Z,0.80
2023-04-28T18:52:51.172Z,0.80
2023-04-28T18:54:24.920Z,1.00
2023-04-28T18:55:58.216Z,2.30
2023-04-28T18:57:30.943Z,8.73
2023-04-28T18:59:04.657Z,36.83
2023-04-28T19:00:37.583Z,50.80
2023-04-28T19:02:10.363Z,37.63
2023-04-28T19:03:44.011Z,17.53
2023-04-28T19:05:18.133Z,11.43
2023-04-28T19:06:50.978Z,6.43
2023-04-28T19:08:24.024Z,6.50
2023-04-28T19:09:56.734Z,5.30
2023-04-28T19:11:30.331Z,2.10
2023-04-28T19:13:03.021Z,2.93
2023-04-28T19:14:36.072Z,2.40
2023-04-28T19:16:08.906Z,1.70
2023-04-28T19:17:41.632Z,1.60
2023-04-28T19:19:14.420Z,1.60
2023-04-28T19:20:50.419Z,1.60
2023-04-28T19:22:34.912Z,2.10
2023-04-28T19:24:07.687Z,1.70
2023-04-28T19:25:40.429Z,1.80
2023-04-28T19:27:13.116Z,1.70
2023-04-28T19:28:45.843Z,1.53
2023-04-28T19:30:18.660Z,1.30
2023-04-28T19:31:51.345Z,1.37
2023-04-28T19:33:27.795Z,1.33
2023-04-28T19:35:01.199Z,1.50
2023-04-28T19:36:35.512Z,1.37
2023-04-28T19:38:08.780Z,1.43
2023-04-28T19:39:41.489Z,1.50
2023-04-28T19:41:14.569Z,1.40
2023-04-28T19:42:47.513Z,1.40
2023-04-28T19:44:20.208Z,1.30
2023-04-28T19:45:52.945Z,1.40
2023-04-28T19:47:26.131Z,1.37
2023-04-28T19:48:58.906Z,1.50
2023-04-28T19:50:31.609Z,1.67
2023-04-28T19:52:06.226Z,1.40
2023-04-28T19:53:40.480Z,1.50
2023-04-28T19:55:18.175Z,1.40
2023-04-28T19:56:51.258Z,1.53
2023-04-28T19:58:23.953Z,1.50
2023-04-28T19:59:57.345Z,1.43
2023-04-28T20:01:30.112Z,1.60
2023-04-28T20:03:02.954Z,1.30
2023-04-28T20:04:36.602Z,1.50
2023-04-28T20:06:10.057Z,1.47
2023-04-28T20:07:44.091Z,1.43
2023-04-28T20:09:17.199Z,1.70
2023-04-28T20:10:49.952Z,1.67
2023-04-28T20:12:22.986Z,1.77
2023-04-28T20:13:55.652Z,1.70
2023-04-28T20:15:28.431Z,1.80
2023-04-28T20:17:03.559Z,2.07
2023-04-28T20:18:36.863Z,2.57
2023-04-28T20:20:10.624Z,2.10
2023-04-28T20:21:43.290Z,2.40
2023-04-28T20:23:17.633Z,2.47
2023-04-28T20:24:50.332Z,2.97
2023-04-28T20:26:23.025Z,2.97
2023-04-28T20:27:56.138Z,2.90
2023-04-28T20:29:31.155Z,3.07
2023-04-28T20:31:03.992Z,3.00
2023-04-28T20:32:36.736Z,2.70
2023-04-28T20:34:09.732Z,3.10
2023-04-28T20:35:42.736Z,3.00
2023-04-28T20:37:15.450Z,2.80
2023-04-28T20:38:49.562Z,3.20
2023-04-28T20:40:22.767Z,2.70